DAL22 KDCA-KLAX
Flight info
| Callsign | DAL22 |
|---|---|
| Flight time | N/A |
| Altitude | 34000 |
| Route | REBLL5 OTTTO Q176 CIM J96 DRK J231 HIPPI GABBL HLYWD1 |
| Aircraft | A321/M-SDE3FGHIRWY/LB1 |
Departure
| Time | 2026-04-22 23:45 |
|---|---|
| Airport | Ronald Reagan Washington National Airport (KDCA) |
Arrival
| Time | N/A |
|---|---|
| Airport | Los Angeles International Airport (KLAX) |
| Time | Latitude | Longitude | Altitude | Speed | Heading |
|---|---|---|---|---|---|
| 2026-04-22 23:16 | 38.84652 | -77.04214 | 28 ft | 0 kts | 331° |
| 2026-04-22 23:20 | 38.84652 | -77.04213 | 28 ft | 0 kts | 331° |
| 2026-04-22 23:30 | 38.84651 | -77.04212 | 25 ft | 2 kts | 329° |
| 2026-04-22 23:30 | 38.84638 | -77.04203 | 31 ft | 4 kts | 250° |
| 2026-04-22 23:31 | 38.84644 | -77.04205 | 29 ft | 3 kts | 319° |
| 2026-04-22 23:31 | 38.84628 | -77.04194 | 31 ft | 4 kts | 341° |
| 2026-04-22 23:31 | 38.84603 | -77.04188 | 26 ft | 4 kts | 12° |
| 2026-04-22 23:31 | 38.84581 | -77.04202 | 27 ft | 4 kts | 55° |
| 2026-04-22 23:32 | 38.84574 | -77.04221 | 26 ft | 1 kts | 78° |
| 2026-04-22 23:32 | 38.84573 | -77.04224 | 30 ft | 2 kts | 78° |
| 2026-04-22 23:38 | 38.84577 | -77.04202 | 27 ft | 7 kts | 78° |
| 2026-04-22 23:38 | 38.84597 | -77.04093 | 27 ft | 18 kts | 69° |
| 2026-04-22 23:39 | 38.84709 | -77.03993 | 23 ft | 20 kts | 21° |
| 2026-04-22 23:39 | 38.84823 | -77.03942 | 22 ft | 16 kts | 1° |
| 2026-04-22 23:39 | 38.84930 | -77.03955 | 21 ft | 15 kts | 354° |
| 2026-04-22 23:39 | 38.85026 | -77.03965 | 21 ft | 13 kts | 356° |
| 2026-04-22 23:40 | 38.85106 | -77.03972 | 21 ft | 10 kts | 355° |
| 2026-04-22 23:40 | 38.85171 | -77.03979 | 21 ft | 8 kts | 355° |
| 2026-04-22 23:40 | 38.85237 | -77.03986 | 22 ft | 12 kts | 354° |
| 2026-04-22 23:40 | 38.85336 | -77.03995 | 23 ft | 17 kts | 356° |
| 2026-04-22 23:41 | 38.85467 | -77.04007 | 25 ft | 20 kts | 355° |
| 2026-04-22 23:41 | 38.85590 | -77.04040 | 27 ft | 16 kts | 357° |
| 2026-04-22 23:41 | 38.85687 | -77.04046 | 29 ft | 12 kts | 355° |
| 2026-04-22 23:41 | 38.85766 | -77.04055 | 29 ft | 11 kts | 355° |
| 2026-04-22 23:42 | 38.85864 | -77.04064 | 26 ft | 16 kts | 356° |
| 2026-04-22 23:42 | 38.85940 | -77.04029 | 28 ft | 6 kts | 65° |
| 2026-04-22 23:42 | 38.85967 | -77.04001 | 26 ft | 4 kts | 27° |
| 2026-04-22 23:42 | 38.85998 | -77.03985 | 29 ft | 8 kts | 19° |
| 2026-04-22 23:43 | 38.86071 | -77.03936 | 25 ft | 13 kts | 51° |
| 2026-04-22 23:43 | 38.86046 | -77.03865 | 24 ft | 9 kts | 173° |
| 2026-04-22 23:43 | 38.86041 | -77.03865 | 23 ft | 0 kts | 173° |
| 2026-04-22 23:44 | 38.86040 | -77.03864 | 23 ft | 1 kts | 173° |
| 2026-04-22 23:44 | 38.85865 | -77.03845 | 28 ft | 60 kts | 176° |
| 2026-04-22 23:44 | 38.85220 | -77.03785 | 23 ft | 122 kts | 175° |
| 2026-04-22 23:44 | 38.84586 | -77.03725 | 27 ft | 153 kts | 175° |
| 2026-04-22 23:45 | 38.83446 | -77.03618 | 368 ft | 169 kts | 176° |
| 2026-04-22 23:45 | 38.82236 | -77.03536 | 955 ft | 176 kts | 180° |
| 2026-04-22 23:45 | 38.80624 | -77.03512 | 1924 ft | 170 kts | 182° |
| 2026-04-22 23:45 | 38.79828 | -77.03506 | 2099 ft | 178 kts | 182° |
| 2026-04-22 23:46 | 38.78523 | -77.03499 | 2250 ft | 197 kts | 181° |
| 2026-04-22 23:46 | 38.77096 | -77.03491 | 2388 ft | 213 kts | 182° |
| 2026-04-22 23:46 | 38.75640 | -77.03980 | 2497 ft | 227 kts | 217° |
| 2026-04-22 23:46 | 38.74732 | -77.05648 | 2745 ft | 236 kts | 254° |
| 2026-04-22 23:47 | 38.74443 | -77.07770 | 3055 ft | 251 kts | 265° |
| 2026-04-22 23:47 | 38.74342 | -77.10007 | 3623 ft | 256 kts | 269° |
| 2026-04-22 23:47 | 38.74290 | -77.12295 | 4314 ft | 258 kts | 270° |
| 2026-04-22 23:47 | 38.74231 | -77.14590 | 5030 ft | 258 kts | 270° |
| 2026-04-22 23:48 | 38.74145 | -77.16890 | 5727 ft | 259 kts | 269° |
| 2026-04-22 23:48 | 38.74036 | -77.19194 | 6408 ft | 260 kts | 269° |
| 2026-04-22 23:48 | 38.73907 | -77.21516 | 7023 ft | 262 kts | 269° |
| 2026-04-22 23:48 | 38.73776 | -77.23858 | 7614 ft | 265 kts | 271° |
| 2026-04-22 23:49 | 38.73956 | -77.26202 | 8184 ft | 265 kts | 286° |
| 2026-04-22 23:49 | 38.74464 | -77.28471 | 8804 ft | 266 kts | 289° |
| 2026-04-22 23:49 | 38.74977 | -77.30759 | 9420 ft | 268 kts | 289° |
| 2026-04-22 23:49 | 38.75492 | -77.33066 | 10030 ft | 270 kts | 289° |
| 2026-04-22 23:50 | 38.76021 | -77.35435 | 10302 ft | 286 kts | 289° |
| 2026-04-22 23:50 | 38.76586 | -77.37960 | 10434 ft | 304 kts | 289° |
| 2026-04-22 23:50 | 38.77185 | -77.40650 | 10559 ft | 322 kts | 288° |
| 2026-04-22 23:50 | 38.77805 | -77.43456 | 10899 ft | 331 kts | 288° |
| 2026-04-22 23:51 | 38.78433 | -77.46319 | 11410 ft | 335 kts | 288° |
| 2026-04-22 23:51 | 38.79065 | -77.49213 | 11937 ft | 339 kts | 288° |
| 2026-04-22 23:51 | 38.79702 | -77.52135 | 12482 ft | 342 kts | 288° |
| 2026-04-22 23:51 | 38.80346 | -77.55082 | 13018 ft | 345 kts | 288° |
| 2026-04-22 23:52 | 38.80998 | -77.58052 | 13560 ft | 348 kts | 288° |
| 2026-04-22 23:52 | 38.81660 | -77.61056 | 14015 ft | 352 kts | 288° |
| 2026-04-22 23:52 | 38.82226 | -77.64087 | 14480 ft | 357 kts | 281° |
| 2026-04-22 23:52 | 38.82531 | -77.67258 | 14982 ft | 359 kts | 279° |
| 2026-04-22 23:53 | 38.82828 | -77.70442 | 15488 ft | 361 kts | 280° |
| 2026-04-22 23:53 | 38.83126 | -77.73645 | 15986 ft | 362 kts | 280° |
| 2026-04-22 23:53 | 38.83425 | -77.76856 | 16485 ft | 364 kts | 280° |
| 2026-04-22 23:53 | 38.83729 | -77.80090 | 16978 ft | 366 kts | 280° |
| 2026-04-22 23:54 | 38.84034 | -77.83337 | 17475 ft | 368 kts | 280° |
| 2026-04-22 23:54 | 38.84341 | -77.86605 | 17945 ft | 369 kts | 280° |
| 2026-04-22 23:54 | 38.84620 | -77.89886 | 18400 ft | 372 kts | 278° |
| 2026-04-22 23:54 | 38.84793 | -77.93204 | 18779 ft | 375 kts | 276° |
| 2026-04-22 23:55 | 38.84890 | -77.96560 | 19146 ft | 378 kts | 275° |
| 2026-04-22 23:55 | 38.84952 | -77.99947 | 19482 ft | 381 kts | 275° |
| 2026-04-22 23:55 | 38.85006 | -78.03355 | 19825 ft | 384 kts | 275° |
| 2026-04-22 23:55 | 38.85068 | -78.06787 | 20143 ft | 386 kts | 275° |
| 2026-04-22 23:56 | 38.85148 | -78.10237 | 20518 ft | 388 kts | 276° |
| 2026-04-22 23:56 | 38.85240 | -78.13705 | 20886 ft | 390 kts | 276° |
| 2026-04-22 23:56 | 38.85336 | -78.17192 | 21256 ft | 392 kts | 276° |
| 2026-04-22 23:56 | 38.85433 | -78.20691 | 21607 ft | 394 kts | 276° |
| 2026-04-22 23:57 | 38.85481 | -78.24221 | 21958 ft | 397 kts | 274° |
| 2026-04-22 23:57 | 38.85463 | -78.27784 | 22309 ft | 400 kts | 273° |
| 2026-04-22 23:57 | 38.85408 | -78.31359 | 22655 ft | 402 kts | 273° |
| 2026-04-22 23:57 | 38.85338 | -78.34963 | 22985 ft | 405 kts | 273° |
| 2026-04-22 23:58 | 38.85268 | -78.38582 | 23319 ft | 407 kts | 273° |
| 2026-04-22 23:58 | 38.85206 | -78.42223 | 23658 ft | 409 kts | 273° |
| 2026-04-22 23:58 | 38.85155 | -78.45880 | 23961 ft | 410 kts | 273° |
| 2026-04-22 23:58 | 38.85109 | -78.49494 | 24245 ft | 412 kts | 274° |
| 2026-04-22 23:59 | 38.85066 | -78.53178 | 24520 ft | 413 kts | 274° |
| 2026-04-22 23:59 | 38.85023 | -78.56870 | 24806 ft | 415 kts | 274° |
| 2026-04-22 23:59 | 38.84980 | -78.60575 | 25085 ft | 416 kts | 274° |
| 2026-04-22 23:59 | 38.84934 | -78.64296 | 25368 ft | 418 kts | 274° |
| 2026-04-23 00:00 | 38.84834 | -78.71769 | 25910 ft | 420 kts | 274° |
| 2026-04-23 00:00 | 38.84779 | -78.75530 | 26184 ft | 422 kts | 274° |
| 2026-04-23 00:00 | 38.84720 | -78.79291 | 26453 ft | 423 kts | 274° |
| 2026-04-23 00:01 | 38.84661 | -78.83070 | 26708 ft | 425 kts | 274° |
| 2026-04-23 00:01 | 38.84601 | -78.86864 | 26978 ft | 426 kts | 274° |
| 2026-04-23 00:01 | 38.84539 | -78.90666 | 27250 ft | 427 kts | 274° |
| 2026-04-23 00:01 | 38.84478 | -78.94479 | 27501 ft | 428 kts | 274° |
| 2026-04-23 00:02 | 38.84417 | -78.98313 | 27735 ft | 430 kts | 274° |
| 2026-04-23 00:02 | 38.84355 | -79.02147 | 27984 ft | 430 kts | 274° |
| 2026-04-23 00:02 | 38.84289 | -79.05996 | 28198 ft | 432 kts | 274° |
| 2026-04-23 00:02 | 38.84222 | -79.09849 | 28439 ft | 433 kts | 274° |
| 2026-04-23 00:03 | 38.84154 | -79.13722 | 28663 ft | 435 kts | 274° |
| 2026-04-23 00:03 | 38.84085 | -79.17605 | 28884 ft | 436 kts | 274° |
| 2026-04-23 00:03 | 38.84013 | -79.21500 | 29092 ft | 438 kts | 274° |
| 2026-04-23 00:03 | 38.83940 | -79.25411 | 29352 ft | 439 kts | 274° |
| 2026-04-23 00:04 | 38.83865 | -79.29314 | 29697 ft | 437 kts | 274° |
| 2026-04-23 00:04 | 38.83789 | -79.33188 | 29992 ft | 436 kts | 275° |
| 2026-04-23 00:04 | 38.83713 | -79.37080 | 30265 ft | 435 kts | 274° |
| 2026-04-23 00:04 | 38.83636 | -79.40960 | 30506 ft | 435 kts | 274° |
| 2026-04-23 00:05 | 38.83554 | -79.44845 | 30782 ft | 434 kts | 274° |
| 2026-04-23 00:05 | 38.83472 | -79.48714 | 31052 ft | 434 kts | 274° |
| 2026-04-23 00:05 | 38.83389 | -79.52577 | 31320 ft | 433 kts | 274° |
| 2026-04-23 00:05 | 38.83305 | -79.56432 | 31563 ft | 432 kts | 274° |
| 2026-04-23 00:06 | 38.83223 | -79.60291 | 31826 ft | 432 kts | 274° |
| 2026-04-23 00:06 | 38.83143 | -79.64140 | 32057 ft | 432 kts | 274° |
| 2026-04-23 00:06 | 38.83060 | -79.67995 | 32299 ft | 432 kts | 274° |
| 2026-04-23 00:06 | 38.82974 | -79.71847 | 32539 ft | 432 kts | 274° |
| 2026-04-23 00:07 | 38.82885 | -79.75641 | 32780 ft | 431 kts | 274° |
| 2026-04-23 00:07 | 38.82794 | -79.79488 | 33015 ft | 431 kts | 274° |
| 2026-04-23 00:07 | 38.82703 | -79.83328 | 33173 ft | 431 kts | 274° |
| 2026-04-23 00:07 | 38.82608 | -79.87181 | 33373 ft | 432 kts | 274° |
| 2026-04-23 00:08 | 38.82512 | -79.91026 | 33590 ft | 432 kts | 274° |
| 2026-04-23 00:08 | 38.82416 | -79.94872 | 33801 ft | 432 kts | 274° |
| 2026-04-23 00:08 | 38.82318 | -79.98716 | 34027 ft | 432 kts | 274° |
| 2026-04-23 00:09 | 38.82128 | -80.06382 | 34109 ft | 430 kts | 274° |
| 2026-04-23 00:09 | 38.81926 | -80.14045 | 34106 ft | 430 kts | 274° |
| 2026-04-23 00:10 | 38.81725 | -80.21699 | 34109 ft | 429 kts | 274° |
| 2026-04-23 00:10 | 38.81523 | -80.29349 | 34102 ft | 429 kts | 274° |
| 2026-04-23 00:11 | 38.81312 | -80.37004 | 34104 ft | 430 kts | 273° |
| 2026-04-23 00:11 | 38.81083 | -80.44655 | 34102 ft | 429 kts | 273° |
| 2026-04-23 00:12 | 38.80854 | -80.52309 | 34088 ft | 429 kts | 273° |
| 2026-04-23 00:12 | 38.80631 | -80.59957 | 34077 ft | 430 kts | 273° |
| 2026-04-23 00:13 | 38.80394 | -80.67619 | 34067 ft | 430 kts | 273° |
| 2026-04-23 00:13 | 38.80149 | -80.75247 | 34067 ft | 431 kts | 273° |
| 2026-04-23 00:14 | 38.79900 | -80.82926 | 34064 ft | 431 kts | 273° |
| 2026-04-23 00:14 | 38.79648 | -80.90620 | 34070 ft | 432 kts | 273° |
| 2026-04-23 00:15 | 38.79386 | -80.98318 | 34060 ft | 432 kts | 273° |
| 2026-04-23 00:15 | 38.79124 | -81.06020 | 34063 ft | 433 kts | 273° |
| 2026-04-23 00:16 | 38.78862 | -81.13724 | 34064 ft | 432 kts | 273° |
| 2026-04-23 00:16 | 38.78591 | -81.21431 | 34045 ft | 432 kts | 272° |
| 2026-04-23 00:17 | 38.78313 | -81.29086 | 34040 ft | 433 kts | 272° |
| 2026-04-23 00:17 | 38.78029 | -81.36801 | 34055 ft | 433 kts | 272° |
| 2026-04-23 00:18 | 38.77743 | -81.44519 | 34064 ft | 434 kts | 272° |
| 2026-04-23 00:18 | 38.77451 | -81.52233 | 34067 ft | 433 kts | 272° |
| 2026-04-23 00:19 | 38.77155 | -81.59951 | 34068 ft | 433 kts | 272° |
| 2026-04-23 00:19 | 38.76848 | -81.67677 | 34054 ft | 433 kts | 272° |
| 2026-04-23 00:20 | 38.76539 | -81.75382 | 34065 ft | 433 kts | 272° |
| 2026-04-23 00:20 | 38.76228 | -81.83154 | 34075 ft | 442 kts | 271° |
| 2026-04-23 00:21 | 38.75905 | -81.90966 | 34072 ft | 435 kts | 272° |
| 2026-04-23 00:21 | 38.75580 | -81.98671 | 34072 ft | 433 kts | 271° |
| 2026-04-23 00:22 | 38.75264 | -82.06362 | 34076 ft | 432 kts | 272° |
| 2026-04-23 00:22 | 38.74977 | -82.14053 | 34075 ft | 432 kts | 272° |
| 2026-04-23 00:23 | 38.74696 | -82.21745 | 34078 ft | 432 kts | 272° |
| 2026-04-23 00:23 | 38.74403 | -82.29434 | 34080 ft | 432 kts | 272° |
| 2026-04-23 00:24 | 38.74100 | -82.37132 | 34081 ft | 432 kts | 272° |
| 2026-04-23 00:24 | 38.73790 | -82.44775 | 34069 ft | 432 kts | 271° |
| 2026-04-23 00:25 | 38.73480 | -82.52465 | 34075 ft | 432 kts | 271° |
| 2026-04-23 00:25 | 38.73164 | -82.60149 | 34071 ft | 432 kts | 271° |
| 2026-04-23 00:26 | 38.72837 | -82.67838 | 34069 ft | 432 kts | 271° |
| 2026-04-23 00:26 | 38.72515 | -82.75516 | 34066 ft | 432 kts | 271° |
| 2026-04-23 00:27 | 38.72180 | -82.83192 | 34063 ft | 432 kts | 271° |
| 2026-04-23 00:27 | 38.71840 | -82.90857 | 34071 ft | 431 kts | 271° |
| 2026-04-23 00:28 | 38.71503 | -82.98530 | 34072 ft | 431 kts | 271° |
| 2026-04-23 00:28 | 38.71155 | -83.06154 | 34075 ft | 431 kts | 271° |
| 2026-04-23 00:29 | 38.70808 | -83.13816 | 34073 ft | 431 kts | 271° |
| 2026-04-23 00:29 | 38.70453 | -83.21475 | 34068 ft | 431 kts | 270° |
| 2026-04-23 00:30 | 38.70089 | -83.29136 | 34075 ft | 431 kts | 270° |
| 2026-04-23 00:30 | 38.69780 | -83.35555 | 34058 ft | 431 kts | 270° |
| 2026-04-23 00:31 | 38.69412 | -83.43221 | 34062 ft | 431 kts | 270° |
| 2026-04-23 00:31 | 38.69038 | -83.50897 | 34065 ft | 432 kts | 270° |
| 2026-04-23 00:32 | 38.68656 | -83.58520 | 34052 ft | 432 kts | 270° |
| 2026-04-23 00:32 | 38.68269 | -83.66190 | 34061 ft | 432 kts | 270° |
| 2026-04-23 00:33 | 38.67876 | -83.73879 | 34064 ft | 432 kts | 270° |
| 2026-04-23 00:33 | 38.67476 | -83.81555 | 34065 ft | 433 kts | 270° |
| 2026-04-23 00:34 | 38.67075 | -83.89237 | 34092 ft | 433 kts | 270° |
| 2026-04-23 00:34 | 38.66673 | -83.96921 | 34070 ft | 433 kts | 269° |
| 2026-04-23 00:35 | 38.66265 | -84.04613 | 34066 ft | 433 kts | 269° |
| 2026-04-23 00:35 | 38.65844 | -84.12314 | 34064 ft | 434 kts | 269° |
| 2026-04-23 00:36 | 38.65412 | -84.20021 | 34069 ft | 434 kts | 269° |
| 2026-04-23 00:36 | 38.64984 | -84.27673 | 34070 ft | 434 kts | 269° |
| 2026-04-23 00:37 | 38.64553 | -84.35387 | 34052 ft | 434 kts | 269° |
| 2026-04-23 00:37 | 38.64258 | -84.43088 | 34053 ft | 431 kts | 277° |
| 2026-04-23 00:38 | 38.64837 | -84.50705 | 34057 ft | 430 kts | 279° |
| 2026-04-23 00:38 | 38.65435 | -84.58326 | 34060 ft | 431 kts | 279° |
| 2026-04-23 00:39 | 38.66022 | -84.65958 | 34062 ft | 431 kts | 279° |
| 2026-04-23 00:39 | 38.66609 | -84.73594 | 34049 ft | 431 kts | 279° |
| 2026-04-23 00:40 | 38.67193 | -84.81234 | 34049 ft | 432 kts | 279° |
| 2026-04-23 00:40 | 38.67773 | -84.88885 | 34055 ft | 432 kts | 279° |
| 2026-04-23 00:41 | 38.68349 | -84.96536 | 34063 ft | 432 kts | 279° |
| 2026-04-23 00:41 | 38.68914 | -85.04191 | 34064 ft | 432 kts | 279° |
| 2026-04-23 00:42 | 38.69478 | -85.11817 | 34047 ft | 433 kts | 279° |
| 2026-04-23 00:42 | 38.70027 | -85.19488 | 34050 ft | 434 kts | 278° |
| 2026-04-23 00:43 | 38.70451 | -85.27200 | 34052 ft | 435 kts | 277° |
| 2026-04-23 00:43 | 38.70814 | -85.34934 | 34098 ft | 435 kts | 277° |
| 2026-04-23 00:44 | 38.71195 | -85.42659 | 34088 ft | 435 kts | 277° |
| 2026-04-23 00:44 | 38.71586 | -85.50390 | 34094 ft | 435 kts | 277° |
| 2026-04-23 00:45 | 38.71972 | -85.58131 | 34098 ft | 435 kts | 277° |
| 2026-04-23 00:45 | 38.72356 | -85.65870 | 34094 ft | 435 kts | 277° |
| 2026-04-23 00:46 | 38.72737 | -85.73615 | 34096 ft | 435 kts | 277° |
| 2026-04-23 00:46 | 38.73115 | -85.81355 | 34084 ft | 435 kts | 277° |
| 2026-04-23 00:47 | 38.73482 | -85.89099 | 34074 ft | 436 kts | 277° |
| 2026-04-23 00:47 | 38.73834 | -85.96846 | 34078 ft | 436 kts | 277° |
| 2026-04-23 00:48 | 38.74189 | -86.04594 | 34071 ft | 436 kts | 277° |
| 2026-04-23 00:48 | 38.74543 | -86.12291 | 34072 ft | 436 kts | 277° |
| 2026-04-23 00:49 | 38.74898 | -86.20033 | 34050 ft | 436 kts | 277° |
| 2026-04-23 00:49 | 38.75244 | -86.27779 | 34084 ft | 435 kts | 277° |
| 2026-04-23 00:50 | 38.75579 | -86.35526 | 34094 ft | 435 kts | 277° |
| 2026-04-23 00:50 | 38.75907 | -86.43266 | 34086 ft | 435 kts | 277° |
| 2026-04-23 00:51 | 38.76233 | -86.51008 | 34083 ft | 435 kts | 276° |
| 2026-04-23 00:51 | 38.76555 | -86.58738 | 34070 ft | 435 kts | 276° |
| 2026-04-23 00:52 | 38.76865 | -86.66473 | 34075 ft | 434 kts | 276° |
| 2026-04-23 00:52 | 38.77171 | -86.74145 | 34074 ft | 434 kts | 276° |
| 2026-04-23 00:53 | 38.77476 | -86.81860 | 34069 ft | 434 kts | 276° |
| 2026-04-23 00:53 | 38.77782 | -86.89578 | 34077 ft | 433 kts | 276° |
| 2026-04-23 00:54 | 38.78081 | -86.97293 | 34065 ft | 433 kts | 276° |
| 2026-04-23 00:54 | 38.78371 | -87.05006 | 34073 ft | 433 kts | 276° |
| 2026-04-23 00:55 | 38.78651 | -87.12721 | 34075 ft | 433 kts | 276° |
| 2026-04-23 00:55 | 38.78924 | -87.20426 | 34073 ft | 433 kts | 276° |
| 2026-04-23 00:56 | 38.79199 | -87.28137 | 34071 ft | 433 kts | 276° |
| 2026-04-23 00:56 | 38.79467 | -87.35838 | 34061 ft | 433 kts | 276° |
| 2026-04-23 00:57 | 38.79730 | -87.43544 | 34063 ft | 433 kts | 276° |
| 2026-04-23 00:57 | 38.79988 | -87.51246 | 34066 ft | 433 kts | 276° |
| 2026-04-23 00:58 | 38.80236 | -87.58956 | 34067 ft | 433 kts | 275° |
| 2026-04-23 00:58 | 38.80486 | -87.66657 | 34068 ft | 433 kts | 276° |
| 2026-04-23 00:59 | 38.80736 | -87.74370 | 34058 ft | 432 kts | 275° |
| 2026-04-23 00:59 | 38.80981 | -87.82071 | 34061 ft | 433 kts | 275° |
| 2026-04-23 01:00 | 38.81210 | -87.89785 | 34059 ft | 433 kts | 275° |
| 2026-04-23 01:00 | 38.81428 | -87.97502 | 34065 ft | 433 kts | 275° |
| 2026-04-23 01:01 | 38.81654 | -88.05206 | 34068 ft | 433 kts | 275° |
| 2026-04-23 01:01 | 38.81875 | -88.12919 | 34069 ft | 432 kts | 275° |
| 2026-04-23 01:02 | 38.82088 | -88.20622 | 34071 ft | 432 kts | 275° |
| 2026-04-23 01:02 | 38.82290 | -88.28276 | 34074 ft | 432 kts | 275° |
| 2026-04-23 01:03 | 38.82493 | -88.35977 | 34074 ft | 432 kts | 275° |
| 2026-04-23 01:03 | 38.82695 | -88.43683 | 34075 ft | 432 kts | 275° |
| 2026-04-23 01:04 | 38.82891 | -88.51382 | 34069 ft | 432 kts | 275° |
| 2026-04-23 01:04 | 38.83163 | -88.62929 | 34070 ft | 432 kts | 275° |
| 2026-04-23 01:05 | 38.83336 | -88.70626 | 34071 ft | 432 kts | 275° |
| 2026-04-23 01:05 | 38.83516 | -88.78334 | 34064 ft | 432 kts | 275° |
| 2026-04-23 01:06 | 38.83690 | -88.85985 | 34058 ft | 432 kts | 274° |
| 2026-04-23 01:06 | 38.83857 | -88.93690 | 34047 ft | 432 kts | 274° |
| 2026-04-23 01:07 | 38.84012 | -89.01404 | 34056 ft | 432 kts | 274° |
| 2026-04-23 01:07 | 38.84163 | -89.09106 | 34049 ft | 432 kts | 274° |
| 2026-04-23 01:08 | 38.84315 | -89.16818 | 34045 ft | 432 kts | 274° |
| 2026-04-23 01:08 | 38.84460 | -89.24525 | 34043 ft | 432 kts | 274° |
| 2026-04-23 01:09 | 38.84598 | -89.32238 | 34040 ft | 432 kts | 274° |
| 2026-04-23 01:09 | 38.84732 | -89.39947 | 34036 ft | 432 kts | 274° |
| 2026-04-23 01:10 | 38.84861 | -89.47650 | 34040 ft | 432 kts | 274° |
| 2026-04-23 01:10 | 38.84989 | -89.55356 | 34032 ft | 432 kts | 274° |
| 2026-04-23 01:11 | 38.85111 | -89.63051 | 34040 ft | 432 kts | 274° |
| 2026-04-23 01:11 | 38.85221 | -89.70751 | 34033 ft | 431 kts | 274° |
| 2026-04-23 01:12 | 38.85323 | -89.78449 | 34038 ft | 431 kts | 274° |
| 2026-04-23 01:12 | 38.85422 | -89.86141 | 34036 ft | 431 kts | 274° |
| 2026-04-23 01:13 | 38.85520 | -89.93844 | 34028 ft | 431 kts | 274° |
| 2026-04-23 01:13 | 38.85618 | -90.01548 | 34035 ft | 431 kts | 273° |
| 2026-04-23 01:14 | 38.85710 | -90.09235 | 34045 ft | 431 kts | 273° |
| 2026-04-23 01:14 | 38.85796 | -90.16872 | 34042 ft | 431 kts | 273° |
| 2026-04-23 01:15 | 38.85872 | -90.24553 | 34043 ft | 430 kts | 273° |
| 2026-04-23 01:15 | 38.85944 | -90.32224 | 34031 ft | 430 kts | 273° |
| 2026-04-23 01:16 | 38.85999 | -90.38651 | 34025 ft | 430 kts | 272° |
| 2026-04-23 01:16 | 38.86058 | -90.46276 | 34031 ft | 430 kts | 272° |
| 2026-04-23 01:17 | 38.85350 | -90.53915 | 34036 ft | 432 kts | 263° |
| 2026-04-23 01:17 | 38.84363 | -90.61512 | 34034 ft | 432 kts | 263° |
| 2026-04-23 01:18 | 38.83372 | -90.69113 | 34029 ft | 432 kts | 263° |
| 2026-04-23 01:18 | 38.82382 | -90.76705 | 34024 ft | 431 kts | 262° |
| 2026-04-23 01:19 | 38.81388 | -90.84292 | 34029 ft | 431 kts | 262° |
| 2026-04-23 01:19 | 38.80390 | -90.91862 | 34033 ft | 430 kts | 262° |
| 2026-04-23 01:20 | 38.79386 | -90.99426 | 34032 ft | 430 kts | 262° |
| 2026-04-23 01:20 | 38.78379 | -91.06979 | 34036 ft | 430 kts | 262° |
| 2026-04-23 01:21 | 38.77375 | -91.14476 | 34032 ft | 430 kts | 262° |
| 2026-04-23 01:21 | 38.76360 | -91.22034 | 34030 ft | 430 kts | 262° |
| 2026-04-23 01:22 | 38.75345 | -91.29573 | 34029 ft | 429 kts | 262° |
| 2026-04-23 01:22 | 38.74323 | -91.37107 | 34029 ft | 429 kts | 262° |
| 2026-04-23 01:23 | 38.73298 | -91.44643 | 34032 ft | 429 kts | 262° |
| 2026-04-23 01:23 | 38.72260 | -91.52176 | 34031 ft | 429 kts | 262° |
| 2026-04-23 01:24 | 38.71213 | -91.59700 | 34023 ft | 429 kts | 261° |
| 2026-04-23 01:24 | 38.70174 | -91.67213 | 34026 ft | 429 kts | 261° |
| 2026-04-23 01:25 | 38.69125 | -91.74723 | 34026 ft | 428 kts | 261° |
| 2026-04-23 01:25 | 38.68066 | -91.82184 | 34026 ft | 429 kts | 261° |
| 2026-04-23 01:26 | 38.66993 | -91.89692 | 34024 ft | 429 kts | 261° |
| 2026-04-23 01:26 | 38.65918 | -91.97200 | 34031 ft | 428 kts | 261° |
| 2026-04-23 01:27 | 38.64842 | -92.04696 | 34037 ft | 428 kts | 261° |
| 2026-04-23 01:27 | 38.63753 | -92.12183 | 34036 ft | 428 kts | 260° |
| 2026-04-23 01:28 | 38.62670 | -92.19670 | 34021 ft | 428 kts | 261° |
| 2026-04-23 01:28 | 38.61586 | -92.27160 | 34020 ft | 429 kts | 260° |
| 2026-04-23 01:29 | 38.60500 | -92.34654 | 34022 ft | 429 kts | 260° |
| 2026-04-23 01:29 | 38.59418 | -92.42107 | 34027 ft | 428 kts | 260° |
| 2026-04-23 01:30 | 38.58313 | -92.49638 | 34025 ft | 428 kts | 260° |
| 2026-04-23 01:30 | 38.57215 | -92.57078 | 34032 ft | 429 kts | 260° |
| 2026-04-23 01:31 | 38.56110 | -92.64557 | 34030 ft | 428 kts | 260° |
| 2026-04-23 01:31 | 38.54999 | -92.72034 | 34030 ft | 428 kts | 259° |
| 2026-04-23 01:32 | 38.53881 | -92.79497 | 34027 ft | 428 kts | 259° |
| 2026-04-23 01:32 | 38.52757 | -92.86960 | 34027 ft | 428 kts | 259° |
| 2026-04-23 01:33 | 38.51632 | -92.94433 | 34026 ft | 428 kts | 259° |
| 2026-04-23 01:33 | 38.50505 | -93.01898 | 34027 ft | 428 kts | 259° |
| 2026-04-23 01:34 | 38.49364 | -93.09361 | 34030 ft | 428 kts | 258° |
| 2026-04-23 01:34 | 38.48222 | -93.16803 | 34032 ft | 427 kts | 258° |
| 2026-04-23 01:35 | 38.47086 | -93.24245 | 34031 ft | 427 kts | 258° |
| 2026-04-23 01:35 | 38.45940 | -93.31665 | 34028 ft | 426 kts | 258° |
| 2026-04-23 01:36 | 38.44797 | -93.39030 | 34025 ft | 426 kts | 258° |
| 2026-04-23 01:36 | 38.43644 | -93.46439 | 34023 ft | 426 kts | 258° |
| 2026-04-23 01:37 | 38.42486 | -93.53846 | 34005 ft | 426 kts | 258° |
| 2026-04-23 01:37 | 38.41325 | -93.61254 | 34003 ft | 426 kts | 258° |
| 2026-04-23 01:38 | 38.40163 | -93.68660 | 34003 ft | 426 kts | 258° |
| 2026-04-23 01:38 | 38.38998 | -93.76061 | 34013 ft | 426 kts | 258° |
| 2026-04-23 01:39 | 38.37815 | -93.83466 | 34011 ft | 426 kts | 258° |
| 2026-04-23 01:39 | 38.36631 | -93.90865 | 34015 ft | 426 kts | 258° |
| 2026-04-23 01:40 | 38.35444 | -93.98254 | 34017 ft | 426 kts | 257° |
| 2026-04-23 01:40 | 38.34256 | -94.05639 | 34017 ft | 425 kts | 257° |
| 2026-04-23 01:41 | 38.33070 | -94.13020 | 34016 ft | 425 kts | 258° |
| 2026-04-23 01:41 | 38.31876 | -94.20392 | 34019 ft | 425 kts | 257° |
| 2026-04-23 01:42 | 38.30672 | -94.27753 | 34016 ft | 424 kts | 257° |
| 2026-04-23 01:42 | 38.29470 | -94.35097 | 34014 ft | 423 kts | 257° |
| 2026-04-23 01:43 | 38.28261 | -94.42424 | 34008 ft | 423 kts | 257° |
| 2026-04-23 01:43 | 38.27050 | -94.49741 | 34001 ft | 422 kts | 257° |
| 2026-04-23 01:44 | 38.25890 | -94.57059 | 33993 ft | 422 kts | 258° |
| 2026-04-23 01:44 | 38.24762 | -94.64392 | 33997 ft | 422 kts | 257° |
| 2026-04-23 01:45 | 38.23625 | -94.71705 | 33987 ft | 421 kts | 257° |
| 2026-04-23 01:45 | 38.22467 | -94.79008 | 33983 ft | 421 kts | 257° |
| 2026-04-23 01:46 | 38.21306 | -94.86302 | 33978 ft | 421 kts | 257° |
| 2026-04-23 01:46 | 38.20140 | -94.93590 | 33969 ft | 420 kts | 257° |
| 2026-04-23 01:47 | 38.18981 | -95.00825 | 33980 ft | 420 kts | 257° |
| 2026-04-23 01:47 | 38.17812 | -95.08120 | 33979 ft | 420 kts | 257° |
| 2026-04-23 01:48 | 38.16640 | -95.15386 | 33981 ft | 419 kts | 256° |
| 2026-04-23 01:48 | 38.15454 | -95.22645 | 33973 ft | 419 kts | 256° |
| 2026-04-23 01:49 | 38.14269 | -95.29844 | 33972 ft | 419 kts | 256° |
| 2026-04-23 01:49 | 38.13088 | -95.37086 | 33974 ft | 419 kts | 256° |
| 2026-04-23 01:50 | 38.11905 | -95.44335 | 33969 ft | 418 kts | 256° |
| 2026-04-23 01:50 | 38.10715 | -95.51568 | 33962 ft | 418 kts | 256° |
| 2026-04-23 01:51 | 38.09512 | -95.58801 | 33957 ft | 418 kts | 256° |
| 2026-04-23 01:51 | 38.08311 | -95.66016 | 33948 ft | 418 kts | 256° |
| 2026-04-23 01:52 | 38.07101 | -95.73246 | 33954 ft | 418 kts | 256° |
| 2026-04-23 01:52 | 38.05901 | -95.80408 | 33945 ft | 418 kts | 256° |
| 2026-04-23 01:53 | 38.04687 | -95.87631 | 33938 ft | 418 kts | 256° |
| 2026-04-23 01:53 | 38.03470 | -95.94842 | 33920 ft | 418 kts | 256° |
| 2026-04-23 01:54 | 38.02245 | -96.02078 | 33921 ft | 419 kts | 256° |
| 2026-04-23 01:54 | 38.01013 | -96.09303 | 33932 ft | 420 kts | 255° |
| 2026-04-23 01:55 | 37.99769 | -96.16542 | 33921 ft | 420 kts | 255° |
| 2026-04-23 01:55 | 37.98523 | -96.23775 | 33926 ft | 421 kts | 255° |
| 2026-04-23 01:56 | 37.97275 | -96.31030 | 33921 ft | 421 kts | 255° |
| 2026-04-23 01:56 | 37.96025 | -96.38252 | 33919 ft | 421 kts | 255° |
| 2026-04-23 01:57 | 37.94767 | -96.45493 | 33913 ft | 421 kts | 255° |
| 2026-04-23 01:57 | 37.93509 | -96.52735 | 33914 ft | 421 kts | 256° |
| 2026-04-23 01:58 | 37.92243 | -96.59980 | 33918 ft | 421 kts | 256° |
| 2026-04-23 01:58 | 37.90967 | -96.67225 | 33915 ft | 421 kts | 256° |
| 2026-04-23 01:59 | 37.89694 | -96.74430 | 33922 ft | 422 kts | 256° |
| 2026-04-23 01:59 | 37.88412 | -96.81681 | 33922 ft | 421 kts | 256° |
| 2026-04-23 02:00 | 37.87129 | -96.88919 | 33928 ft | 421 kts | 257° |
| 2026-04-23 02:00 | 37.85846 | -96.96124 | 33926 ft | 421 kts | 257° |
| 2026-04-23 02:01 | 37.84547 | -97.03360 | 33913 ft | 421 kts | 257° |
| 2026-04-23 02:01 | 37.83244 | -97.10595 | 33914 ft | 421 kts | 257° |
| 2026-04-23 02:02 | 37.82163 | -97.16595 | 33911 ft | 421 kts | 257° |
| 2026-04-23 02:02 | 37.80857 | -97.23817 | 33914 ft | 421 kts | 256° |
| 2026-04-23 02:03 | 37.79541 | -97.31042 | 33911 ft | 421 kts | 256° |
| 2026-04-23 02:03 | 37.78222 | -97.38253 | 33907 ft | 421 kts | 256° |
| 2026-04-23 02:04 | 37.76902 | -97.45469 | 33900 ft | 421 kts | 256° |
| 2026-04-23 02:04 | 37.75577 | -97.52687 | 33865 ft | 421 kts | 256° |
| 2026-04-23 02:05 | 37.74245 | -97.59883 | 33870 ft | 421 kts | 257° |
| 2026-04-23 02:05 | 37.72890 | -97.67021 | 33869 ft | 420 kts | 256° |
| 2026-04-23 02:06 | 37.71502 | -97.74198 | 33867 ft | 420 kts | 256° |
| 2026-04-23 02:06 | 37.70111 | -97.81373 | 33860 ft | 420 kts | 256° |
| 2026-04-23 02:07 | 37.68725 | -97.88543 | 33848 ft | 421 kts | 256° |
| 2026-04-23 02:07 | 37.67334 | -97.95723 | 33843 ft | 421 kts | 256° |
| 2026-04-23 02:08 | 37.65942 | -98.02895 | 33850 ft | 421 kts | 256° |
| 2026-04-23 02:08 | 37.64547 | -98.10059 | 33841 ft | 421 kts | 256° |
| 2026-04-23 02:09 | 37.63135 | -98.17222 | 33848 ft | 421 kts | 256° |
| 2026-04-23 02:09 | 37.61723 | -98.24384 | 33849 ft | 421 kts | 256° |
| 2026-04-23 02:10 | 37.60312 | -98.31541 | 33846 ft | 421 kts | 256° |
| 2026-04-23 02:10 | 37.58904 | -98.38698 | 33849 ft | 420 kts | 255° |
| 2026-04-23 02:11 | 37.57493 | -98.45831 | 33853 ft | 419 kts | 255° |
| 2026-04-23 02:11 | 37.56070 | -98.52944 | 33852 ft | 418 kts | 255° |
| 2026-04-23 02:12 | 37.54646 | -98.60039 | 33850 ft | 417 kts | 255° |
| 2026-04-23 02:12 | 37.53229 | -98.67092 | 33851 ft | 417 kts | 255° |
| 2026-04-23 02:13 | 37.51803 | -98.74183 | 33864 ft | 417 kts | 255° |
| 2026-04-23 02:13 | 37.50369 | -98.81259 | 33848 ft | 417 kts | 255° |
| 2026-04-23 02:14 | 37.48932 | -98.88327 | 33835 ft | 416 kts | 255° |
| 2026-04-23 02:14 | 37.47493 | -98.95391 | 33827 ft | 416 kts | 255° |
| 2026-04-23 02:15 | 37.45332 | -99.05965 | 33814 ft | 415 kts | 255° |
| 2026-04-23 02:16 | 37.43892 | -99.13006 | 33804 ft | 415 kts | 255° |
| 2026-04-23 02:16 | 37.42445 | -99.20040 | 33794 ft | 416 kts | 255° |
| 2026-04-23 02:17 | 37.40997 | -99.27083 | 33783 ft | 416 kts | 255° |
| 2026-04-23 02:17 | 37.39541 | -99.34120 | 33783 ft | 416 kts | 255° |
| 2026-04-23 02:18 | 37.38075 | -99.41164 | 33774 ft | 416 kts | 255° |
| 2026-04-23 02:18 | 37.36618 | -99.48157 | 33778 ft | 416 kts | 257° |
| 2026-04-23 02:19 | 37.35148 | -99.55185 | 33771 ft | 416 kts | 257° |
| 2026-04-23 02:19 | 37.33675 | -99.62200 | 33766 ft | 415 kts | 257° |
| 2026-04-23 02:20 | 37.32194 | -99.69218 | 33755 ft | 415 kts | 257° |
| 2026-04-23 02:20 | 37.30720 | -99.76231 | 33740 ft | 415 kts | 257° |
| 2026-04-23 02:21 | 37.29238 | -99.83240 | 33741 ft | 415 kts | 257° |
| 2026-04-23 02:21 | 37.27747 | -99.90260 | 33729 ft | 416 kts | 258° |
| 2026-04-23 02:22 | 37.26250 | -99.97274 | 33726 ft | 416 kts | 258° |
| 2026-04-23 02:22 | 37.24753 | -100.04245 | 33719 ft | 416 kts | 258° |
| 2026-04-23 02:23 | 37.23244 | -100.11270 | 33719 ft | 416 kts | 258° |
| 2026-04-23 02:23 | 37.21735 | -100.18288 | 33708 ft | 416 kts | 258° |
| 2026-04-23 02:24 | 37.20225 | -100.25298 | 33702 ft | 416 kts | 257° |
| 2026-04-23 02:24 | 37.18706 | -100.32290 | 33702 ft | 416 kts | 257° |
| 2026-04-23 02:25 | 37.17189 | -100.39281 | 33716 ft | 415 kts | 257° |
| 2026-04-23 02:25 | 37.15679 | -100.46271 | 33690 ft | 415 kts | 257° |
| 2026-04-23 02:26 | 37.14151 | -100.53248 | 33693 ft | 415 kts | 257° |
| 2026-04-23 02:26 | 37.12626 | -100.60221 | 33712 ft | 415 kts | 257° |
| 2026-04-23 02:27 | 37.11105 | -100.67144 | 33722 ft | 414 kts | 257° |
| 2026-04-23 02:27 | 37.09565 | -100.74098 | 33733 ft | 414 kts | 257° |
| 2026-04-23 02:28 | 37.08025 | -100.81048 | 33747 ft | 414 kts | 257° |
| 2026-04-23 02:28 | 37.06479 | -100.87996 | 33758 ft | 414 kts | 256° |
| 2026-04-23 02:29 | 37.04928 | -100.94940 | 33759 ft | 414 kts | 256° |
| 2026-04-23 02:29 | 37.03789 | -101.01977 | 33754 ft | 412 kts | 262° |
| 2026-04-23 02:30 | 37.02852 | -101.09010 | 33743 ft | 412 kts | 262° |
| 2026-04-23 02:30 | 37.01883 | -101.16074 | 33736 ft | 412 kts | 262° |
| 2026-04-23 02:31 | 37.00918 | -101.23152 | 33709 ft | 412 kts | 262° |
| 2026-04-23 02:31 | 36.99961 | -101.30208 | 33723 ft | 412 kts | 262° |
| 2026-04-23 02:32 | 36.98994 | -101.37260 | 33742 ft | 410 kts | 262° |
| 2026-04-23 02:32 | 36.98017 | -101.44256 | 33734 ft | 408 kts | 262° |
| 2026-04-23 02:33 | 36.97048 | -101.51232 | 33703 ft | 406 kts | 262° |
| 2026-04-23 02:33 | 36.96078 | -101.58194 | 33714 ft | 405 kts | 262° |
| 2026-04-23 02:34 | 36.95107 | -101.65134 | 33732 ft | 405 kts | 262° |
| 2026-04-23 02:34 | 36.94135 | -101.72067 | 33777 ft | 404 kts | 261° |
| 2026-04-23 02:35 | 36.93164 | -101.78970 | 33799 ft | 402 kts | 261° |
| 2026-04-23 02:35 | 36.92188 | -101.85844 | 33800 ft | 401 kts | 261° |
| 2026-04-23 02:36 | 36.91216 | -101.92653 | 33790 ft | 400 kts | 261° |
| 2026-04-23 02:36 | 36.90246 | -101.99496 | 33762 ft | 400 kts | 261° |
| 2026-04-23 02:37 | 36.89262 | -102.06332 | 33729 ft | 400 kts | 260° |
| 2026-04-23 02:37 | 36.88271 | -102.13164 | 33692 ft | 399 kts | 260° |
| 2026-04-23 02:38 | 36.87274 | -102.19984 | 33612 ft | 399 kts | 260° |
| 2026-04-23 02:38 | 36.86283 | -102.26808 | 33609 ft | 399 kts | 260° |
| 2026-04-23 02:39 | 36.85285 | -102.33631 | 33612 ft | 399 kts | 260° |
| 2026-04-23 02:39 | 36.84293 | -102.40452 | 33612 ft | 399 kts | 260° |
| 2026-04-23 02:40 | 36.83297 | -102.47270 | 33626 ft | 399 kts | 259° |
| 2026-04-23 02:40 | 36.82284 | -102.54064 | 33631 ft | 398 kts | 259° |
| 2026-04-23 02:41 | 36.81271 | -102.60852 | 33632 ft | 398 kts | 259° |
| 2026-04-23 02:41 | 36.80260 | -102.67636 | 33641 ft | 398 kts | 259° |
| 2026-04-23 02:42 | 36.79253 | -102.74379 | 33634 ft | 397 kts | 259° |
| 2026-04-23 02:42 | 36.78232 | -102.81155 | 33652 ft | 397 kts | 259° |
| 2026-04-23 02:43 | 36.77209 | -102.87931 | 33616 ft | 398 kts | 259° |
| 2026-04-23 02:43 | 36.76181 | -102.94719 | 33637 ft | 399 kts | 259° |
| 2026-04-23 02:44 | 36.75151 | -103.01520 | 33643 ft | 399 kts | 259° |
| 2026-04-23 02:44 | 36.74107 | -103.08318 | 33652 ft | 399 kts | 258° |
| 2026-04-23 02:45 | 36.73117 | -103.15141 | 33665 ft | 400 kts | 260° |
| 2026-04-23 02:45 | 36.72238 | -103.21982 | 33680 ft | 400 kts | 260° |
| 2026-04-23 02:46 | 36.71363 | -103.28820 | 33676 ft | 399 kts | 260° |
| 2026-04-23 02:46 | 36.70455 | -103.35643 | 33679 ft | 399 kts | 259° |
| 2026-04-23 02:47 | 36.69537 | -103.42471 | 33679 ft | 399 kts | 259° |
| 2026-04-23 02:47 | 36.68622 | -103.49250 | 33675 ft | 399 kts | 259° |
| 2026-04-23 02:48 | 36.67698 | -103.56082 | 33683 ft | 399 kts | 259° |
| 2026-04-23 02:48 | 36.66769 | -103.62904 | 33681 ft | 400 kts | 259° |
| 2026-04-23 02:49 | 36.65992 | -103.68582 | 33698 ft | 400 kts | 259° |
| 2026-04-23 02:49 | 36.65052 | -103.75406 | 33698 ft | 400 kts | 259° |
| 2026-04-23 02:50 | 36.64109 | -103.82233 | 33709 ft | 400 kts | 259° |
| 2026-04-23 02:50 | 36.63167 | -103.89057 | 33717 ft | 400 kts | 259° |
| 2026-04-23 02:51 | 36.62213 | -103.95878 | 33724 ft | 400 kts | 259° |
| 2026-04-23 02:51 | 36.61256 | -104.02708 | 33723 ft | 400 kts | 259° |
| 2026-04-23 02:52 | 36.60305 | -104.09531 | 33726 ft | 400 kts | 259° |
| 2026-04-23 02:52 | 36.59351 | -104.16351 | 33757 ft | 400 kts | 259° |
| 2026-04-23 02:53 | 36.58390 | -104.23171 | 33793 ft | 400 kts | 259° |
| 2026-04-23 02:53 | 36.57430 | -104.29940 | 33816 ft | 400 kts | 259° |
| 2026-04-23 02:54 | 36.56459 | -104.36744 | 33833 ft | 399 kts | 259° |
| 2026-04-23 02:54 | 36.55971 | -104.40149 | 33730 ft | 399 kts | 259° |
| 2026-04-23 02:54 | 36.55481 | -104.43552 | 33723 ft | 399 kts | 259° |
| 2026-04-23 02:55 | 36.54506 | -104.50353 | 33736 ft | 399 kts | 259° |
| 2026-04-23 02:55 | 36.53528 | -104.57144 | 33736 ft | 399 kts | 259° |
| 2026-04-23 02:56 | 36.52545 | -104.63942 | 33735 ft | 399 kts | 259° |
| 2026-04-23 02:56 | 36.51555 | -104.70740 | 33744 ft | 399 kts | 259° |
| 2026-04-23 02:57 | 36.50561 | -104.77528 | 33753 ft | 399 kts | 259° |
| 2026-04-23 02:57 | 36.49564 | -104.84318 | 33752 ft | 399 kts | 259° |
| 2026-04-23 02:58 | 36.48253 | -104.90968 | 33746 ft | 399 kts | 253° |
| 2026-04-23 02:58 | 36.46692 | -104.97600 | 33754 ft | 400 kts | 253° |
| 2026-04-23 02:58 | 36.45916 | -105.00914 | 33895 ft | 400 kts | 253° |
| 2026-04-23 02:59 | 36.45135 | -105.04235 | 33924 ft | 401 kts | 253° |
| 2026-04-23 02:59 | 36.43562 | -105.10890 | 33995 ft | 401 kts | 253° |
| 2026-04-23 03:00 | 36.41990 | -105.17539 | 34047 ft | 401 kts | 253° |
| 2026-04-23 03:00 | 36.40416 | -105.24194 | 34052 ft | 402 kts | 253° |
| 2026-04-23 03:01 | 36.38834 | -105.30848 | 34047 ft | 402 kts | 252° |
| 2026-04-23 03:01 | 36.37240 | -105.37509 | 34049 ft | 404 kts | 252° |
| 2026-04-23 03:02 | 36.35645 | -105.44155 | 34008 ft | 405 kts | 252° |
| 2026-04-23 03:02 | 36.34037 | -105.50853 | 33957 ft | 406 kts | 252° |
| 2026-04-23 03:03 | 36.32420 | -105.57572 | 33906 ft | 406 kts | 252° |
| 2026-04-23 03:03 | 36.30804 | -105.64286 | 33900 ft | 406 kts | 252° |
| 2026-04-23 03:04 | 36.29172 | -105.71021 | 33846 ft | 404 kts | 252° |
| 2026-04-23 03:04 | 36.27563 | -105.77640 | 33844 ft | 402 kts | 252° |
| 2026-04-23 03:05 | 36.25957 | -105.84271 | 33841 ft | 401 kts | 252° |
| 2026-04-23 03:05 | 36.24354 | -105.90877 | 33831 ft | 400 kts | 252° |
| 2026-04-23 03:06 | 36.22743 | -105.97469 | 33828 ft | 400 kts | 252° |
| 2026-04-23 03:06 | 36.21126 | -106.04026 | 33821 ft | 395 kts | 252° |
| 2026-04-23 03:07 | 36.19530 | -106.10499 | 33833 ft | 392 kts | 252° |
| 2026-04-23 03:07 | 36.17940 | -106.16958 | 33859 ft | 392 kts | 252° |
| 2026-04-23 03:08 | 36.16351 | -106.23406 | 33888 ft | 392 kts | 252° |
| 2026-04-23 03:08 | 36.14756 | -106.29849 | 33898 ft | 391 kts | 252° |
| 2026-04-23 03:09 | 36.13157 | -106.36292 | 33920 ft | 391 kts | 252° |
| 2026-04-23 03:09 | 36.11555 | -106.42720 | 33914 ft | 391 kts | 252° |
| 2026-04-23 03:10 | 36.09945 | -106.49146 | 33910 ft | 391 kts | 252° |
| 2026-04-23 03:10 | 36.08337 | -106.55565 | 33893 ft | 391 kts | 252° |
| 2026-04-23 03:11 | 36.06736 | -106.61949 | 33876 ft | 391 kts | 252° |
| 2026-04-23 03:11 | 36.05121 | -106.68366 | 33852 ft | 391 kts | 252° |
| 2026-04-23 03:12 | 36.03504 | -106.74774 | 33884 ft | 390 kts | 252° |
| 2026-04-23 03:12 | 36.01891 | -106.81158 | 33884 ft | 388 kts | 252° |
| 2026-04-23 03:13 | 36.00285 | -106.87516 | 33882 ft | 387 kts | 252° |
| 2026-04-23 03:13 | 35.98678 | -106.93856 | 33874 ft | 386 kts | 252° |
| 2026-04-23 03:14 | 35.97064 | -107.00179 | 33873 ft | 386 kts | 252° |
| 2026-04-23 03:14 | 35.95452 | -107.06494 | 33844 ft | 386 kts | 252° |
| 2026-04-23 03:15 | 35.93835 | -107.12810 | 33843 ft | 386 kts | 252° |
| 2026-04-23 03:15 | 35.92209 | -107.19133 | 33843 ft | 387 kts | 252° |
| 2026-04-23 03:16 | 35.90586 | -107.25452 | 33845 ft | 387 kts | 252° |
| 2026-04-23 03:16 | 35.88147 | -107.34895 | 33850 ft | 387 kts | 252° |
| 2026-04-23 03:17 | 35.86512 | -107.41212 | 33854 ft | 387 kts | 252° |
| 2026-04-23 03:17 | 35.84872 | -107.47529 | 33853 ft | 386 kts | 252° |
| 2026-04-23 03:18 | 35.83232 | -107.53846 | 33851 ft | 386 kts | 252° |
| 2026-04-23 03:18 | 35.81587 | -107.60147 | 33850 ft | 386 kts | 252° |
| 2026-04-23 03:19 | 35.79946 | -107.66405 | 33844 ft | 386 kts | 252° |
| 2026-04-23 03:19 | 35.78297 | -107.72696 | 33842 ft | 386 kts | 252° |
| 2026-04-23 03:20 | 35.76643 | -107.78992 | 33835 ft | 386 kts | 253° |
| 2026-04-23 03:20 | 35.74992 | -107.85278 | 33837 ft | 386 kts | 253° |
| 2026-04-23 03:21 | 35.73331 | -107.91554 | 33832 ft | 386 kts | 253° |
| 2026-04-23 03:21 | 35.71670 | -107.97830 | 33832 ft | 386 kts | 253° |
| 2026-04-23 03:22 | 35.70010 | -108.04098 | 33830 ft | 385 kts | 253° |
| 2026-04-23 03:22 | 35.68343 | -108.10364 | 33830 ft | 385 kts | 253° |
| 2026-04-23 03:23 | 35.66677 | -108.16631 | 33824 ft | 385 kts | 252° |
| 2026-04-23 03:23 | 35.65005 | -108.22887 | 33824 ft | 385 kts | 252° |
| 2026-04-23 03:24 | 35.63342 | -108.29106 | 33822 ft | 385 kts | 252° |
| 2026-04-23 03:24 | 35.61665 | -108.35354 | 33822 ft | 385 kts | 252° |
| 2026-04-23 03:25 | 35.59989 | -108.41603 | 33824 ft | 385 kts | 252° |
| 2026-04-23 03:25 | 35.58302 | -108.47847 | 33824 ft | 384 kts | 253° |
| 2026-04-23 03:26 | 35.56621 | -108.54074 | 33824 ft | 384 kts | 253° |
| 2026-04-23 03:26 | 35.54937 | -108.60297 | 33818 ft | 384 kts | 253° |
| 2026-04-23 03:27 | 35.53251 | -108.66503 | 33817 ft | 383 kts | 253° |
| 2026-04-23 03:27 | 35.51562 | -108.72705 | 33806 ft | 383 kts | 253° |
| 2026-04-23 03:28 | 35.50717 | -108.75808 | 34079 ft | 383 kts | 253° |
| 2026-04-23 03:28 | 35.49870 | -108.78904 | 34089 ft | 383 kts | 253° |
| 2026-04-23 03:28 | 35.48177 | -108.85088 | 34064 ft | 382 kts | 253° |
| 2026-04-23 03:29 | 35.46634 | -108.91307 | 34051 ft | 380 kts | 257° |
| 2026-04-23 03:29 | 35.45433 | -108.97623 | 34002 ft | 380 kts | 259° |
| 2026-04-23 03:30 | 35.44277 | -109.03939 | 33969 ft | 379 kts | 258° |
| 2026-04-23 03:30 | 35.43064 | -109.10194 | 33958 ft | 380 kts | 258° |
| 2026-04-23 03:31 | 35.41799 | -109.16477 | 33966 ft | 379 kts | 258° |
| 2026-04-23 03:31 | 35.40528 | -109.22735 | 33935 ft | 378 kts | 258° |
| 2026-04-23 03:32 | 35.39268 | -109.28975 | 33904 ft | 377 kts | 258° |
| 2026-04-23 03:32 | 35.38010 | -109.35205 | 33867 ft | 376 kts | 258° |
| 2026-04-23 03:33 | 35.36757 | -109.41430 | 33867 ft | 376 kts | 258° |
| 2026-04-23 03:33 | 35.35501 | -109.47653 | 33874 ft | 376 kts | 258° |
| 2026-04-23 03:34 | 35.34237 | -109.53864 | 33878 ft | 375 kts | 257° |
| 2026-04-23 03:34 | 35.33187 | -109.59008 | 33877 ft | 374 kts | 257° |
| 2026-04-23 03:35 | 35.31916 | -109.65189 | 33875 ft | 374 kts | 257° |
| 2026-04-23 03:35 | 35.30447 | -109.72363 | 33881 ft | 374 kts | 258° |
| 2026-04-23 03:36 | 35.29390 | -109.77536 | 33876 ft | 374 kts | 257° |
| 2026-04-23 03:36 | 35.28118 | -109.83697 | 33885 ft | 373 kts | 257° |
| 2026-04-23 03:37 | 35.26853 | -109.89807 | 33886 ft | 373 kts | 257° |
| 2026-04-23 03:37 | 35.25574 | -109.95952 | 33891 ft | 372 kts | 257° |
| 2026-04-23 03:38 | 35.24297 | -110.02086 | 33887 ft | 372 kts | 257° |
| 2026-04-23 03:38 | 35.23017 | -110.08224 | 33894 ft | 372 kts | 257° |
| 2026-04-23 03:39 | 35.21737 | -110.14358 | 33889 ft | 372 kts | 257° |
| 2026-04-23 03:39 | 35.20456 | -110.20490 | 33895 ft | 372 kts | 257° |
| 2026-04-23 03:40 | 35.19166 | -110.26616 | 33898 ft | 372 kts | 257° |
| 2026-04-23 03:40 | 35.17877 | -110.32741 | 33899 ft | 372 kts | 257° |
| 2026-04-23 03:41 | 35.16581 | -110.38862 | 33903 ft | 371 kts | 257° |
| 2026-04-23 03:41 | 35.15293 | -110.44932 | 33903 ft | 371 kts | 257° |
| 2026-04-23 03:42 | 35.13997 | -110.51038 | 33910 ft | 372 kts | 257° |
| 2026-04-23 03:42 | 35.12694 | -110.57151 | 33907 ft | 372 kts | 257° |
| 2026-04-23 03:43 | 35.11387 | -110.63268 | 34041 ft | 372 kts | 257° |
| 2026-04-23 03:43 | 35.10079 | -110.69371 | 34056 ft | 372 kts | 257° |
| 2026-04-23 03:44 | 35.08771 | -110.75468 | 34055 ft | 372 kts | 257° |
| 2026-04-23 03:44 | 35.07452 | -110.81580 | 34018 ft | 372 kts | 257° |
| 2026-04-23 03:45 | 35.06131 | -110.87691 | 34005 ft | 373 kts | 257° |
| 2026-04-23 03:45 | 35.04807 | -110.93823 | 33987 ft | 374 kts | 257° |
| 2026-04-23 03:46 | 35.03476 | -110.99960 | 33969 ft | 375 kts | 257° |
| 2026-04-23 03:46 | 35.02135 | -111.06108 | 33950 ft | 375 kts | 257° |
| 2026-04-23 03:47 | 35.00801 | -111.12213 | 33932 ft | 375 kts | 257° |
| 2026-04-23 03:47 | 34.99462 | -111.18370 | 33912 ft | 375 kts | 257° |
| 2026-04-23 03:48 | 34.98108 | -111.24523 | 33916 ft | 375 kts | 257° |
| 2026-04-23 03:48 | 34.96755 | -111.30668 | 33923 ft | 376 kts | 257° |
| 2026-04-23 03:49 | 34.95395 | -111.36817 | 33932 ft | 376 kts | 257° |
| 2026-04-23 03:49 | 34.94037 | -111.42960 | 33934 ft | 376 kts | 257° |
| 2026-04-23 03:50 | 34.92677 | -111.49106 | 33930 ft | 375 kts | 257° |
| 2026-04-23 03:50 | 34.91315 | -111.55250 | 33928 ft | 376 kts | 257° |
| 2026-04-23 03:51 | 34.89946 | -111.61393 | 34032 ft | 376 kts | 257° |
| 2026-04-23 03:51 | 34.88572 | -111.67532 | 34057 ft | 375 kts | 257° |
| 2026-04-23 03:52 | 34.87199 | -111.73669 | 34063 ft | 376 kts | 257° |
| 2026-04-23 03:52 | 34.85829 | -111.79768 | 34082 ft | 375 kts | 257° |
| 2026-04-23 03:53 | 34.84445 | -111.85883 | 34092 ft | 374 kts | 257° |
| 2026-04-23 03:53 | 34.83068 | -111.91964 | 34077 ft | 372 kts | 257° |
| 2026-04-23 03:54 | 34.81697 | -111.98031 | 34046 ft | 371 kts | 257° |
| 2026-04-23 03:54 | 34.80328 | -112.04083 | 34016 ft | 371 kts | 257° |
| 2026-04-23 03:55 | 34.78956 | -112.10127 | 33988 ft | 370 kts | 257° |
| 2026-04-23 03:55 | 34.77583 | -112.16155 | 34016 ft | 369 kts | 256° |
| 2026-04-23 03:56 | 34.76206 | -112.22173 | 34043 ft | 369 kts | 256° |
| 2026-04-23 03:56 | 34.74827 | -112.28176 | 34066 ft | 368 kts | 256° |
| 2026-04-23 03:57 | 34.73449 | -112.34170 | 34088 ft | 368 kts | 256° |
| 2026-04-23 03:57 | 34.72080 | -112.40113 | 34091 ft | 367 kts | 256° |
| 2026-04-23 03:58 | 34.70700 | -112.46089 | 34077 ft | 367 kts | 256° |
| 2026-04-23 03:58 | 34.69770 | -112.52174 | 33924 ft | 366 kts | 263° |
| 2026-04-23 03:59 | 34.69059 | -112.58308 | 33925 ft | 367 kts | 263° |
| 2026-04-23 03:59 | 34.68338 | -112.64441 | 33924 ft | 367 kts | 263° |
| 2026-04-23 04:00 | 34.67614 | -112.70579 | 33926 ft | 367 kts | 263° |
| 2026-04-23 04:00 | 34.66890 | -112.76714 | 33928 ft | 367 kts | 263° |
| 2026-04-23 04:01 | 34.66161 | -112.82853 | 33914 ft | 367 kts | 263° |
| 2026-04-23 04:01 | 34.65430 | -112.88992 | 33914 ft | 367 kts | 263° |
| 2026-04-23 04:02 | 34.64697 | -112.95129 | 33916 ft | 368 kts | 263° |
| 2026-04-23 04:02 | 34.63958 | -113.01275 | 33914 ft | 368 kts | 263° |
| 2026-04-23 04:03 | 34.63209 | -113.07418 | 33913 ft | 368 kts | 263° |
| 2026-04-23 04:03 | 34.62461 | -113.13565 | 33924 ft | 368 kts | 262° |
| 2026-04-23 04:04 | 34.61713 | -113.19699 | 33923 ft | 367 kts | 262° |
| 2026-04-23 04:04 | 34.60973 | -113.25784 | 33911 ft | 367 kts | 262° |
| 2026-04-23 04:05 | 34.60218 | -113.31902 | 33915 ft | 366 kts | 262° |
| 2026-04-23 04:05 | 34.59459 | -113.38021 | 33902 ft | 366 kts | 263° |
| 2026-04-23 04:06 | 34.58706 | -113.44134 | 33887 ft | 366 kts | 262° |
| 2026-04-23 04:06 | 34.57946 | -113.50241 | 33883 ft | 366 kts | 262° |
| 2026-04-23 04:07 | 34.57177 | -113.56350 | 33892 ft | 366 kts | 262° |
| 2026-04-23 04:07 | 34.56403 | -113.62454 | 33883 ft | 366 kts | 262° |
| 2026-04-23 04:08 | 34.55671 | -113.68562 | 33890 ft | 366 kts | 263° |
| 2026-04-23 04:08 | 34.55013 | -113.74682 | 33892 ft | 366 kts | 263° |
| 2026-04-23 04:09 | 34.54354 | -113.80794 | 33898 ft | 365 kts | 263° |
| 2026-04-23 04:09 | 34.53680 | -113.86893 | 33894 ft | 365 kts | 263° |
| 2026-04-23 04:10 | 34.52997 | -113.92995 | 33887 ft | 365 kts | 263° |
| 2026-04-23 04:10 | 34.52307 | -113.99090 | 33897 ft | 365 kts | 263° |
| 2026-04-23 04:11 | 34.51616 | -114.05149 | 33900 ft | 365 kts | 261° |
| 2026-04-23 04:11 | 34.50397 | -114.11132 | 33919 ft | 365 kts | 257° |
| 2026-04-23 04:12 | 34.49134 | -114.17080 | 33934 ft | 364 kts | 258° |
| 2026-04-23 04:12 | 34.47881 | -114.23024 | 33933 ft | 364 kts | 258° |
| 2026-04-23 04:13 | 34.46628 | -114.28957 | 33935 ft | 363 kts | 257° |
| 2026-04-23 04:13 | 34.45368 | -114.34887 | 33933 ft | 363 kts | 257° |
| 2026-04-23 04:14 | 34.44106 | -114.40812 | 33884 ft | 363 kts | 258° |
| 2026-04-23 04:14 | 34.42838 | -114.46732 | 33880 ft | 363 kts | 258° |
| 2026-04-23 04:15 | 34.41567 | -114.52656 | 33878 ft | 364 kts | 258° |
| 2026-04-23 04:16 | 34.39651 | -114.61548 | 33878 ft | 364 kts | 258° |
| 2026-04-23 04:16 | 34.38379 | -114.67444 | 33890 ft | 364 kts | 258° |
| 2026-04-23 04:17 | 34.37096 | -114.73380 | 33893 ft | 364 kts | 257° |
| 2026-04-23 04:17 | 34.35809 | -114.79324 | 33897 ft | 364 kts | 258° |
| 2026-04-23 04:18 | 34.34517 | -114.85245 | 33893 ft | 364 kts | 257° |
| 2026-04-23 04:18 | 34.33225 | -114.91178 | 33896 ft | 364 kts | 257° |
| 2026-04-23 04:19 | 34.31926 | -114.97114 | 33900 ft | 364 kts | 257° |
| 2026-04-23 04:19 | 34.30626 | -115.03033 | 33874 ft | 364 kts | 257° |
| 2026-04-23 04:20 | 34.29329 | -115.08922 | 33880 ft | 365 kts | 257° |
| 2026-04-23 04:20 | 34.28018 | -115.14859 | 33893 ft | 366 kts | 257° |
| 2026-04-23 04:21 | 34.26701 | -115.20797 | 33908 ft | 366 kts | 257° |
| 2026-04-23 04:21 | 34.25408 | -115.26749 | 33913 ft | 366 kts | 258° |
| 2026-04-23 04:22 | 34.24356 | -115.31747 | 33913 ft | 366 kts | 258° |
| 2026-04-23 04:22 | 34.23111 | -115.37669 | 33917 ft | 365 kts | 258° |
| 2026-04-23 04:23 | 34.21847 | -115.43600 | 33928 ft | 364 kts | 258° |
| 2026-04-23 04:23 | 34.20571 | -115.49527 | 33934 ft | 364 kts | 258° |
| 2026-04-23 04:24 | 34.19296 | -115.55445 | 33938 ft | 364 kts | 258° |
| 2026-04-23 04:24 | 34.18018 | -115.61356 | 33936 ft | 363 kts | 258° |
| 2026-04-23 04:25 | 34.16745 | -115.67247 | 33963 ft | 362 kts | 258° |
| 2026-04-23 04:25 | 34.15974 | -115.73224 | 33963 ft | 359 kts | 264° |
| 2026-04-23 04:26 | 34.15403 | -115.79176 | 33991 ft | 359 kts | 264° |
| 2026-04-23 04:26 | 34.14820 | -115.85210 | 33997 ft | 360 kts | 264° |
| 2026-04-23 04:27 | 34.14231 | -115.91176 | 34013 ft | 360 kts | 264° |
| 2026-04-23 04:27 | 34.13639 | -115.97179 | 34030 ft | 360 kts | 264° |
| 2026-04-23 04:28 | 34.12765 | -116.06198 | 34043 ft | 361 kts | 264° |
| 2026-04-23 04:28 | 34.12176 | -116.12212 | 34047 ft | 361 kts | 264° |
| 2026-04-23 04:29 | 34.11580 | -116.18240 | 34050 ft | 363 kts | 264° |
| 2026-04-23 04:29 | 34.10970 | -116.24373 | 33358 ft | 371 kts | 264° |
| 2026-04-23 04:30 | 34.10660 | -116.27473 | 32434 ft | 373 kts | 264° |
| 2026-04-23 04:30 | 34.10349 | -116.30608 | 31705 ft | 372 kts | 264° |
| 2026-04-23 04:30 | 34.10035 | -116.33651 | 31446 ft | 365 kts | 263° |
| 2026-04-23 04:30 | 34.09712 | -116.36691 | 31046 ft | 365 kts | 263° |
| 2026-04-23 04:31 | 34.09384 | -116.39730 | 30630 ft | 365 kts | 263° |
| 2026-04-23 04:31 | 34.09054 | -116.42762 | 30219 ft | 364 kts | 263° |
| 2026-04-23 04:31 | 34.08725 | -116.45783 | 29778 ft | 363 kts | 263° |
| 2026-04-23 04:31 | 34.08398 | -116.48792 | 29366 ft | 361 kts | 263° |
| 2026-04-23 04:32 | 34.08071 | -116.51786 | 28972 ft | 359 kts | 263° |
| 2026-04-23 04:32 | 34.07747 | -116.54761 | 28577 ft | 357 kts | 263° |
| 2026-04-23 04:32 | 34.07427 | -116.57722 | 28151 ft | 355 kts | 264° |
| 2026-04-23 04:32 | 34.07119 | -116.60637 | 27771 ft | 354 kts | 264° |
| 2026-04-23 04:33 | 34.06837 | -116.63575 | 27388 ft | 352 kts | 265° |
| 2026-04-23 04:33 | 34.06574 | -116.66498 | 26997 ft | 349 kts | 265° |
| 2026-04-23 04:33 | 34.06319 | -116.69403 | 26607 ft | 347 kts | 265° |
| 2026-04-23 04:33 | 34.06063 | -116.72293 | 26222 ft | 345 kts | 265° |
| 2026-04-23 04:34 | 34.05801 | -116.75153 | 25858 ft | 343 kts | 264° |
| 2026-04-23 04:34 | 34.05535 | -116.78003 | 25477 ft | 340 kts | 265° |
| 2026-04-23 04:34 | 34.05270 | -116.80827 | 25102 ft | 339 kts | 264° |
| 2026-04-23 04:34 | 34.05003 | -116.83644 | 24723 ft | 336 kts | 264° |
| 2026-04-23 04:35 | 34.04737 | -116.86434 | 24349 ft | 334 kts | 265° |
| 2026-04-23 04:35 | 34.04474 | -116.89207 | 24000 ft | 332 kts | 264° |
| 2026-04-23 04:35 | 34.04167 | -116.91962 | 23531 ft | 331 kts | 263° |
| 2026-04-23 04:35 | 34.03817 | -116.94689 | 23018 ft | 328 kts | 263° |
| 2026-04-23 04:36 | 34.03446 | -116.97396 | 22576 ft | 326 kts | 262° |
| 2026-04-23 04:36 | 34.03073 | -117.00089 | 22151 ft | 324 kts | 263° |
| 2026-04-23 04:36 | 34.02710 | -117.02761 | 21711 ft | 322 kts | 263° |
| 2026-04-23 04:36 | 34.02368 | -117.05422 | 21272 ft | 320 kts | 263° |
| 2026-04-23 04:37 | 34.02050 | -117.08068 | 20836 ft | 318 kts | 264° |
| 2026-04-23 04:37 | 34.01744 | -117.10701 | 20394 ft | 316 kts | 264° |
| 2026-04-23 04:37 | 34.01439 | -117.13324 | 19979 ft | 315 kts | 264° |
| 2026-04-23 04:37 | 34.01135 | -117.15926 | 19546 ft | 313 kts | 264° |
| 2026-04-23 04:38 | 34.00828 | -117.18521 | 19116 ft | 312 kts | 264° |
| 2026-04-23 04:38 | 34.00522 | -117.21099 | 18764 ft | 310 kts | 264° |
| 2026-04-23 04:38 | 34.00218 | -117.23661 | 18338 ft | 308 kts | 264° |
| 2026-04-23 04:38 | 33.99914 | -117.26207 | 17902 ft | 306 kts | 264° |
| 2026-04-23 04:39 | 33.99611 | -117.28738 | 17484 ft | 304 kts | 264° |
| 2026-04-23 04:39 | 33.99310 | -117.31259 | 17059 ft | 303 kts | 264° |
| 2026-04-23 04:39 | 33.99012 | -117.33768 | 16650 ft | 302 kts | 264° |
| 2026-04-23 04:39 | 33.98717 | -117.36273 | 16248 ft | 301 kts | 264° |
| 2026-04-23 04:40 | 33.98428 | -117.38729 | 15832 ft | 299 kts | 264° |
| 2026-04-23 04:40 | 33.98131 | -117.41242 | 15418 ft | 299 kts | 264° |
| 2026-04-23 04:40 | 33.97843 | -117.43685 | 15015 ft | 298 kts | 264° |
| 2026-04-23 04:40 | 33.97553 | -117.46149 | 14610 ft | 296 kts | 264° |
| 2026-04-23 04:41 | 33.97278 | -117.48604 | 14202 ft | 294 kts | 268° |
| 2026-04-23 04:41 | 33.97268 | -117.51055 | 13752 ft | 293 kts | 273° |
| 2026-04-23 04:41 | 33.97310 | -117.53510 | 13286 ft | 292 kts | 273° |
| 2026-04-23 04:41 | 33.97352 | -117.55952 | 12870 ft | 291 kts | 272° |
| 2026-04-23 04:42 | 33.97392 | -117.58388 | 12416 ft | 290 kts | 272° |
| 2026-04-23 04:42 | 33.97430 | -117.60813 | 11977 ft | 290 kts | 272° |
| 2026-04-23 04:42 | 33.97466 | -117.63236 | 11541 ft | 289 kts | 272° |
| 2026-04-23 04:42 | 33.97500 | -117.65655 | 11105 ft | 288 kts | 272° |
| 2026-04-23 04:43 | 33.97532 | -117.68071 | 10677 ft | 286 kts | 272° |
| 2026-04-23 04:43 | 33.97563 | -117.70448 | 10280 ft | 284 kts | 272° |
| 2026-04-23 04:43 | 33.97592 | -117.72751 | 9947 ft | 267 kts | 272° |
| 2026-04-23 04:43 | 33.97621 | -117.74981 | 9824 ft | 265 kts | 272° |
| 2026-04-23 04:44 | 33.97652 | -117.77205 | 9693 ft | 265 kts | 272° |
| 2026-04-23 04:44 | 33.97682 | -117.79436 | 9358 ft | 266 kts | 272° |
| 2026-04-23 04:44 | 33.97711 | -117.81658 | 8931 ft | 266 kts | 272° |
| 2026-04-23 04:44 | 33.97742 | -117.83888 | 8489 ft | 267 kts | 272° |
| 2026-04-23 04:45 | 33.97775 | -117.86119 | 8110 ft | 265 kts | 272° |
| 2026-04-23 04:45 | 33.97805 | -117.88357 | 7618 ft | 269 kts | 272° |
| 2026-04-23 04:45 | 33.97833 | -117.90612 | 7167 ft | 270 kts | 271° |
| 2026-04-23 04:45 | 33.97859 | -117.92876 | 6732 ft | 271 kts | 271° |
| 2026-04-23 04:46 | 33.97886 | -117.95118 | 6300 ft | 272 kts | 271° |
| 2026-04-23 04:46 | 33.97912 | -117.97382 | 5950 ft | 269 kts | 271° |
| 2026-04-23 04:46 | 33.97940 | -117.99630 | 5402 ft | 266 kts | 271° |
| 2026-04-23 04:46 | 33.97966 | -118.01804 | 5218 ft | 253 kts | 271° |
| 2026-04-23 04:47 | 33.97988 | -118.03830 | 5120 ft | 234 kts | 271° |
| 2026-04-23 04:47 | 33.98009 | -118.05785 | 5032 ft | 231 kts | 271° |
| 2026-04-23 04:47 | 33.98030 | -118.07674 | 4903 ft | 222 kts | 271° |
| 2026-04-23 04:47 | 33.98090 | -118.09425 | 4818 ft | 196 kts | 274° |
| 2026-04-23 04:48 | 33.98087 | -118.11030 | 4728 ft | 190 kts | 268° |
| 2026-04-23 04:48 | 33.97977 | -118.12614 | 4633 ft | 189 kts | 265° |
| 2026-04-23 04:48 | 33.97832 | -118.14179 | 4363 ft | 184 kts | 265° |
| 2026-04-23 04:48 | 33.97684 | -118.15684 | 4126 ft | 178 kts | 264° |
| 2026-04-23 04:49 | 33.97538 | -118.17151 | 3893 ft | 174 kts | 265° |
| 2026-04-23 04:49 | 33.97397 | -118.18565 | 3663 ft | 169 kts | 264° |
| 2026-04-23 04:49 | 33.97259 | -118.19938 | 3449 ft | 166 kts | 264° |
| 2026-04-23 04:49 | 33.97122 | -118.21301 | 3232 ft | 163 kts | 264° |
| 2026-04-23 04:50 | 33.96987 | -118.22644 | 3025 ft | 159 kts | 264° |
| 2026-04-23 04:50 | 33.96859 | -118.23921 | 2825 ft | 150 kts | 264° |
| 2026-04-23 04:50 | 33.96735 | -118.25155 | 2620 ft | 147 kts | 264° |
| 2026-04-23 04:50 | 33.96612 | -118.26370 | 2420 ft | 146 kts | 264° |
| 2026-04-23 04:51 | 33.96490 | -118.27579 | 2226 ft | 145 kts | 264° |
| 2026-04-23 04:51 | 33.96358 | -118.28792 | 2032 ft | 152 kts | 263° |
| 2026-04-23 04:51 | 33.96211 | -118.30036 | 1914 ft | 146 kts | 263° |
| 2026-04-23 04:51 | 33.96072 | -118.31236 | 1746 ft | 144 kts | 264° |
| 2026-04-23 04:52 | 33.95965 | -118.32438 | 1500 ft | 147 kts | 265° |
| 2026-04-23 04:52 | 33.95856 | -118.33650 | 1266 ft | 142 kts | 264° |
| 2026-04-23 04:52 | 33.95737 | -118.34827 | 1051 ft | 143 kts | 264° |
| 2026-04-23 04:52 | 33.95618 | -118.36029 | 847 ft | 143 kts | 264° |
| 2026-04-23 04:53 | 33.95511 | -118.37196 | 674 ft | 136 kts | 265° |
| 2026-04-23 04:53 | 33.95410 | -118.38304 | 464 ft | 130 kts | 263° |
| 2026-04-23 04:53 | 33.95297 | -118.39356 | 259 ft | 125 kts | 263° |
| 2026-04-23 04:53 | 33.95190 | -118.40381 | 120 ft | 123 kts | 263° |
| 2026-04-23 04:54 | 33.95092 | -118.41352 | 96 ft | 105 kts | 263° |
| 2026-04-23 04:54 | 33.95009 | -118.42141 | 94 ft | 77 kts | 262° |
| 2026-04-23 04:54 | 33.94918 | -118.42699 | 98 ft | 74 kts | 256° |